Xi'an, China
Current Conditions -  °F | °C
As of 12:00 PM on Monday 24 Nov 2014 (Local Time) from ZLXY Reporting Station
Light Rain Light Rain  
Wind Chill: 45°   Ceiling: 4000
Heat Index: 45°   Visibility: 0.87mi
Dew Point: 43°   Wind: 2mph
Humidity: 93%   Direction: NA
Pressure: 30.27"   Gusts: NA
Location:  34.3°N, 108.93°E
Report Text: ZLXY 240400Z VRB01MPS 1400 R23R/1400N R23L/1600N -RA BRFEW007OVC040 07/06 Q1025 BECMG TL0550 1500
Loading
Personal Weather Stations






























Interactive Weather Map New forecast layout! Learn more

10-Day Weather Forecast

Advertisements
Track Severe Weather on mobile